sensor_id;sensor_type;location;lat;lon;timestamp;P1;durP1;ratioP1;P2;durP2;ratioP2
27804;SDS011;15183;51.350;11.102;2023-10-13T00:00:29;6.53;;;5.00;;
27804;SDS011;15183;51.350;11.102;2023-10-13T00:03:01;8.88;;;4.60;;
27804;SDS011;15183;51.350;11.102;2023-10-13T00:05:31;5.35;;;3.70;;
27804;SDS011;15183;51.350;11.102;2023-10-13T00:08:00;5.78;;;4.47;;
27804;SDS011;15183;51.350;11.102;2023-10-13T00:10:28;4.35;;;3.95;;
27804;SDS011;15183;51.350;11.102;2023-10-13T00:12:56;8.13;;;4.68;;
27804;SDS011;15183;51.350;11.102;2023-10-13T00:15:44;4.97;;;3.90;;
27804;SDS011;15183;51.350;11.102;2023-10-13T00:18:26;5.15;;;4.28;;
27804;SDS011;15183;51.350;11.102;2023-10-13T00:21:16;5.47;;;4.28;;
27804;SDS011;15183;51.350;11.102;2023-10-13T00:23:57;7.55;;;4.55;;
27804;SDS011;15183;51.350;11.102;2023-10-13T00:26:28;4.68;;;3.83;;
27804;SDS011;15183;51.350;11.102;2023-10-13T00:28:56;6.10;;;4.90;;
27804;SDS011;15183;51.350;11.102;2023-10-13T00:31:37;6.55;;;4.55;;
27804;SDS011;15183;51.350;11.102;2023-10-13T00:34:09;7.55;;;5.00;;
27804;SDS011;15183;51.350;11.102;2023-10-13T00:36:38;4.53;;;3.78;;
27804;SDS011;15183;51.350;11.102;2023-10-13T00:39:14;7.75;;;4.47;;
27804;SDS011;15183;51.350;11.102;2023-10-13T00:41:42;6.55;;;4.50;;
27804;SDS011;15183;51.350;11.102;2023-10-13T00:44:22;8.63;;;4.80;;
27804;SDS011;15183;51.350;11.102;2023-10-13T00:47:05;8.07;;;4.65;;
27804;SDS011;15183;51.350;11.102;2023-10-13T00:49:35;8.15;;;4.68;;
27804;SDS011;15183;51.350;11.102;2023-10-13T00:52:06;6.22;;;4.30;;
27804;SDS011;15183;51.350;11.102;2023-10-13T00:54:36;6.43;;;4.47;;
27804;SDS011;15183;51.350;11.102;2023-10-13T00:57:03;6.60;;;4.55;;
27804;SDS011;15183;51.350;11.102;2023-10-13T00:59:38;7.88;;;4.25;;
27804;SDS011;15183;51.350;11.102;2023-10-13T01:02:07;6.22;;;4.30;;
27804;SDS011;15183;51.350;11.102;2023-10-13T01:05:00;7.88;;;5.13;;
27804;SDS011;15183;51.350;11.102;2023-10-13T01:07:28;9.80;;;5.10;;
27804;SDS011;15183;51.350;11.102;2023-10-13T01:09:55;7.20;;;5.28;;
27804;SDS011;15183;51.350;11.102;2023-10-13T01:12:21;12.35;;;5.15;;
27804;SDS011;15183;51.350;11.102;2023-10-13T01:14:49;8.93;;;5.18;;
27804;SDS011;15183;51.350;11.102;2023-10-13T01:17:15;9.35;;;5.15;;
27804;SDS011;15183;51.350;11.102;2023-10-13T01:19:43;7.30;;;5.20;;
27804;SDS011;15183;51.350;11.102;2023-10-13T01:22:11;7.13;;;5.47;;
27804;SDS011;15183;51.350;11.102;2023-10-13T01:24:38;10.70;;;5.50;;
27804;SDS011;15183;51.350;11.102;2023-10-13T01:27:05;9.77;;;5.47;;
27804;SDS011;15183;51.350;11.102;2023-10-13T01:29:50;6.68;;;5.28;;
27804;SDS011;15183;51.350;11.102;2023-10-13T01:32:24;9.40;;;5.63;;
27804;SDS011;15183;51.350;11.102;2023-10-13T01:34:51;8.57;;;4.97;;
27804;SDS011;15183;51.350;11.102;2023-10-13T01:37:21;12.00;;;5.50;;
27804;SDS011;15183;51.350;11.102;2023-10-13T01:39:48;6.82;;;5.28;;
27804;SDS011;15183;51.350;11.102;2023-10-13T01:42:16;7.82;;;5.35;;
27804;SDS011;15183;51.350;11.102;2023-10-13T01:44:47;8.57;;;5.18;;
27804;SDS011;15183;51.350;11.102;2023-10-13T01:47:14;8.75;;;4.75;;
27804;SDS011;15183;51.350;11.102;2023-10-13T01:49:42;9.68;;;5.05;;
27804;SDS011;15183;51.350;11.102;2023-10-13T01:52:13;7.35;;;4.30;;
27804;SDS011;15183;51.350;11.102;2023-10-13T01:54:43;8.95;;;4.65;;
27804;SDS011;15183;51.350;11.102;2023-10-13T01:57:15;7.88;;;4.88;;
27804;SDS011;15183;51.350;11.102;2023-10-13T01:59:49;8.57;;;5.40;;
27804;SDS011;15183;51.350;11.102;2023-10-13T02:02:16;8.27;;;5.22;;
27804;SDS011;15183;51.350;11.102;2023-10-13T02:04:54;8.27;;;5.28;;
27804;SDS011;15183;51.350;11.102;2023-10-13T02:07:29;7.18;;;5.28;;
27804;SDS011;15183;51.350;11.102;2023-10-13T02:09:56;8.27;;;5.10;;
27804;SDS011;15183;51.350;11.102;2023-10-13T02:12:23;8.02;;;5.07;;
27804;SDS011;15183;51.350;11.102;2023-10-13T02:14:55;11.10;;;5.43;;
27804;SDS011;15183;51.350;11.102;2023-10-13T02:17:21;10.32;;;5.18;;
27804;SDS011;15183;51.350;11.102;2023-10-13T02:19:48;12.65;;;5.32;;
27804;SDS011;15183;51.350;11.102;2023-10-13T02:22:19;10.60;;;6.03;;
27804;SDS011;15183;51.350;11.102;2023-10-13T02:24:57;8.18;;;5.40;;
27804;SDS011;15183;51.350;11.102;2023-10-13T02:27:27;10.52;;;5.45;;
27804;SDS011;15183;51.350;11.102;2023-10-13T02:29:54;8.88;;;5.40;;
27804;SDS011;15183;51.350;11.102;2023-10-13T02:32:24;8.60;;;4.72;;
27804;SDS011;15183;51.350;11.102;2023-10-13T02:34:52;10.52;;;5.38;;
27804;SDS011;15183;51.350;11.102;2023-10-13T02:37:23;14.20;;;6.22;;
27804;SDS011;15183;51.350;11.102;2023-10-13T02:39:49;9.32;;;6.10;;
27804;SDS011;15183;51.350;11.102;2023-10-13T02:42:16;9.52;;;5.20;;
27804;SDS011;15183;51.350;11.102;2023-10-13T02:44:49;9.45;;;6.07;;
27804;SDS011;15183;51.350;11.102;2023-10-13T02:47:16;8.15;;;4.85;;
27804;SDS011;15183;51.350;11.102;2023-10-13T02:49:45;8.38;;;5.90;;
27804;SDS011;15183;51.350;11.102;2023-10-13T02:52:13;8.98;;;5.82;;
27804;SDS011;15183;51.350;11.102;2023-10-13T02:54:41;9.25;;;5.68;;
27804;SDS011;15183;51.350;11.102;2023-10-13T02:57:17;10.07;;;5.80;;
27804;SDS011;15183;51.350;11.102;2023-10-13T02:59:44;13.27;;;6.40;;
27804;SDS011;15183;51.350;11.102;2023-10-13T03:02:21;9.93;;;6.00;;
27804;SDS011;15183;51.350;11.102;2023-10-13T03:04:55;9.05;;;5.30;;
27804;SDS011;15183;51.350;11.102;2023-10-13T03:07:30;9.18;;;5.97;;
27804;SDS011;15183;51.350;11.102;2023-10-13T03:09:57;9.27;;;5.40;;
27804;SDS011;15183;51.350;11.102;2023-10-13T03:12:27;8.55;;;5.30;;
27804;SDS011;15183;51.350;11.102;2023-10-13T03:14:58;9.38;;;5.80;;
27804;SDS011;15183;51.350;11.102;2023-10-13T03:17:45;11.88;;;5.90;;
27804;SDS011;15183;51.350;11.102;2023-10-13T03:20:15;10.57;;;5.93;;
27804;SDS011;15183;51.350;11.102;2023-10-13T03:22:52;6.95;;;4.93;;
27804;SDS011;15183;51.350;11.102;2023-10-13T03:25:20;8.85;;;5.13;;
27804;SDS011;15183;51.350;11.102;2023-10-13T03:27:58;8.70;;;5.35;;
27804;SDS011;15183;51.350;11.102;2023-10-13T03:30:24;11.25;;;5.55;;
27804;SDS011;15183;51.350;11.102;2023-10-13T03:33:02;7.53;;;5.10;;
27804;SDS011;15183;51.350;11.102;2023-10-13T03:35:33;7.68;;;4.47;;
27804;SDS011;15183;51.350;11.102;2023-10-13T03:38:04;8.95;;;4.95;;
27804;SDS011;15183;51.350;11.102;2023-10-13T03:40:43;9.70;;;4.57;;
27804;SDS011;15183;51.350;11.102;2023-10-13T03:43:33;6.78;;;4.15;;
27804;SDS011;15183;51.350;11.102;2023-10-13T03:46:23;7.82;;;4.43;;
27804;SDS011;15183;51.350;11.102;2023-10-13T03:48:52;10.95;;;4.80;;
27804;SDS011;15183;51.350;11.102;2023-10-13T03:51:27;8.00;;;4.55;;
27804;SDS011;15183;51.350;11.102;2023-10-13T03:53:57;6.30;;;4.50;;
27804;SDS011;15183;51.350;11.102;2023-10-13T03:56:24;8.23;;;5.35;;
27804;SDS011;15183;51.350;11.102;2023-10-13T03:58:54;7.93;;;5.03;;
27804;SDS011;15183;51.350;11.102;2023-10-13T04:01:42;8.00;;;4.43;;
27804;SDS011;15183;51.350;11.102;2023-10-13T04:04:08;6.55;;;4.60;;
27804;SDS011;15183;51.350;11.102;2023-10-13T04:06:55;6.55;;;4.50;;
27804;SDS011;15183;51.350;11.102;2023-10-13T04:09:27;7.25;;;4.47;;
27804;SDS011;15183;51.350;11.102;2023-10-13T04:12:00;9.95;;;5.30;;
27804;SDS011;15183;51.350;11.102;2023-10-13T04:14:38;11.65;;;4.80;;
27804;SDS011;15183;51.350;11.102;2023-10-13T04:17:28;5.88;;;4.35;;
27804;SDS011;15183;51.350;11.102;2023-10-13T04:19:57;9.18;;;5.10;;
27804;SDS011;15183;51.350;11.102;2023-10-13T04:22:34;14.43;;;5.57;;
27804;SDS011;15183;51.350;11.102;2023-10-13T04:25:14;7.55;;;5.03;;
27804;SDS011;15183;51.350;11.102;2023-10-13T04:28:07;6.03;;;4.57;;
27804;SDS011;15183;51.350;11.102;2023-10-13T04:33:24;6.38;;;4.50;;
27804;SDS011;15183;51.350;11.102;2023-10-13T04:36:08;8.70;;;4.43;;
27804;SDS011;15183;51.350;11.102;2023-10-13T04:38:57;8.13;;;4.20;;
27804;SDS011;15183;51.350;11.102;2023-10-13T04:41:37;6.68;;;4.38;;
27804;SDS011;15183;51.350;11.102;2023-10-13T04:44:09;10.38;;;4.82;;
27804;SDS011;15183;51.350;11.102;2023-10-13T04:46:59;8.38;;;4.45;;
27804;SDS011;15183;51.350;11.102;2023-10-13T04:49:26;7.93;;;4.53;;
27804;SDS011;15183;51.350;11.102;2023-10-13T04:54:30;7.18;;;4.80;;
27804;SDS011;15183;51.350;11.102;2023-10-13T04:57:11;9.93;;;4.40;;
27804;SDS011;15183;51.350;11.102;2023-10-13T04:59:56;8.83;;;4.63;;
27804;SDS011;15183;51.350;11.102;2023-10-13T05:02:35;8.05;;;4.35;;
27804;SDS011;15183;51.350;11.102;2023-10-13T05:05:26;10.15;;;5.28;;
27804;SDS011;15183;51.350;11.102;2023-10-13T05:08:31;6.15;;;4.35;;
27804;SDS011;15183;51.350;11.102;2023-10-13T05:11:16;8.38;;;4.30;;
27804;SDS011;15183;51.350;11.102;2023-10-13T05:14:02;9.00;;;4.38;;
27804;SDS011;15183;51.350;11.102;2023-10-13T05:16:47;6.53;;;4.25;;
27804;SDS011;15183;51.350;11.102;2023-10-13T05:19:32;5.97;;;4.07;;
27804;SDS011;15183;51.350;11.102;2023-10-13T05:22:17;5.72;;;3.85;;
27804;SDS011;15183;51.350;11.102;2023-10-13T05:25:02;10.27;;;4.60;;
27804;SDS011;15183;51.350;11.102;2023-10-13T05:27:48;6.45;;;4.13;;
27804;SDS011;15183;51.350;11.102;2023-10-13T05:30:34;6.03;;;4.10;;
27804;SDS011;15183;51.350;11.102;2023-10-13T05:33:19;5.35;;;3.35;;
27804;SDS011;15183;51.350;11.102;2023-10-13T05:36:10;5.38;;;4.20;;
27804;SDS011;15183;51.350;11.102;2023-10-13T05:38:55;5.70;;;3.63;;
27804;SDS011;15183;51.350;11.102;2023-10-13T05:41:40;6.18;;;4.22;;
27804;SDS011;15183;51.350;11.102;2023-10-13T05:44:25;9.00;;;4.90;;
27804;SDS011;15183;51.350;11.102;2023-10-13T05:47:12;6.25;;;5.20;;
27804;SDS011;15183;51.350;11.102;2023-10-13T05:50:11;7.70;;;4.90;;
27804;SDS011;15183;51.350;11.102;2023-10-13T05:52:55;9.63;;;6.15;;
27804;SDS011;15183;51.350;11.102;2023-10-13T05:55:25;10.80;;;6.20;;
27804;SDS011;15183;51.350;11.102;2023-10-13T05:58:12;10.48;;;6.30;;
27804;SDS011;15183;51.350;11.102;2023-10-13T06:00:57;9.80;;;6.40;;
27804;SDS011;15183;51.350;11.102;2023-10-13T06:03:43;10.20;;;6.23;;
27804;SDS011;15183;51.350;11.102;2023-10-13T06:06:30;9.82;;;6.43;;
27804;SDS011;15183;51.350;11.102;2023-10-13T06:09:15;9.88;;;7.72;;
27804;SDS011;15183;51.350;11.102;2023-10-13T06:12:00;9.38;;;6.82;;
27804;SDS011;15183;51.350;11.102;2023-10-13T06:14:46;9.23;;;6.72;;
27804;SDS011;15183;51.350;11.102;2023-10-13T06:17:31;11.07;;;6.13;;
27804;SDS011;15183;51.350;11.102;2023-10-13T06:20:16;13.63;;;5.53;;
27804;SDS011;15183;51.350;11.102;2023-10-13T06:23:02;7.50;;;5.60;;
27804;SDS011;15183;51.350;11.102;2023-10-13T06:25:50;10.65;;;4.93;;
27804;SDS011;15183;51.350;11.102;2023-10-13T06:28:37;7.78;;;5.43;;
27804;SDS011;15183;51.350;11.102;2023-10-13T06:31:07;7.60;;;5.15;;
27804;SDS011;15183;51.350;11.102;2023-10-13T06:33:54;8.20;;;5.68;;
27804;SDS011;15183;51.350;11.102;2023-10-13T06:36:22;11.00;;;6.38;;
27804;SDS011;15183;51.350;11.102;2023-10-13T06:38:49;8.10;;;5.95;;
27804;SDS011;15183;51.350;11.102;2023-10-13T06:41:20;10.63;;;6.03;;
27804;SDS011;15183;51.350;11.102;2023-10-13T06:43:56;8.87;;;5.80;;
27804;SDS011;15183;51.350;11.102;2023-10-13T06:46:25;9.82;;;7.00;;
27804;SDS011;15183;51.350;11.102;2023-10-13T06:48:54;10.07;;;6.95;;
27804;SDS011;15183;51.350;11.102;2023-10-13T06:51:24;8.90;;;6.63;;
27804;SDS011;15183;51.350;11.102;2023-10-13T06:53:56;10.02;;;6.60;;
27804;SDS011;15183;51.350;11.102;2023-10-13T06:56:23;10.43;;;6.55;;
27804;SDS011;15183;51.350;11.102;2023-10-13T06:58:54;7.70;;;5.65;;
27804;SDS011;15183;51.350;11.102;2023-10-13T07:01:30;8.10;;;6.07;;
27804;SDS011;15183;51.350;11.102;2023-10-13T07:04:04;7.30;;;4.43;;
27804;SDS011;15183;51.350;11.102;2023-10-13T07:06:41;6.53;;;5.45;;
27804;SDS011;15183;51.350;11.102;2023-10-13T07:09:14;7.22;;;5.25;;
27804;SDS011;15183;51.350;11.102;2023-10-13T07:12:05;9.52;;;6.82;;
27804;SDS011;15183;51.350;11.102;2023-10-13T07:14:45;7.63;;;6.28;;
27804;SDS011;15183;51.350;11.102;2023-10-13T07:17:24;9.30;;;6.55;;
27804;SDS011;15183;51.350;11.102;2023-10-13T07:19:52;8.30;;;6.03;;
27804;SDS011;15183;51.350;11.102;2023-10-13T07:22:21;14.52;;;8.43;;
27804;SDS011;15183;51.350;11.102;2023-10-13T07:24:49;6.90;;;4.93;;
27804;SDS011;15183;51.350;11.102;2023-10-13T07:27:17;7.30;;;4.43;;
27804;SDS011;15183;51.350;11.102;2023-10-13T07:29:54;4.95;;;3.45;;
27804;SDS011;15183;51.350;11.102;2023-10-13T07:32:40;5.75;;;3.70;;
27804;SDS011;15183;51.350;11.102;2023-10-13T07:35:16;5.93;;;4.57;;
27804;SDS011;15183;51.350;11.102;2023-10-13T07:37:45;6.55;;;3.60;;
27804;SDS011;15183;51.350;11.102;2023-10-13T07:40:18;5.45;;;4.05;;
27804;SDS011;15183;51.350;11.102;2023-10-13T07:42:53;6.20;;;3.60;;
27804;SDS011;15183;51.350;11.102;2023-10-13T07:45:29;4.53;;;3.15;;
27804;SDS011;15183;51.350;11.102;2023-10-13T07:48:06;5.28;;;3.45;;
27804;SDS011;15183;51.350;11.102;2023-10-13T07:50:44;6.47;;;4.55;;
27804;SDS011;15183;51.350;11.102;2023-10-13T07:53:11;4.43;;;3.38;;
27804;SDS011;15183;51.350;11.102;2023-10-13T07:55:50;6.57;;;3.20;;
27804;SDS011;15183;51.350;11.102;2023-10-13T07:58:28;3.92;;;3.13;;
27804;SDS011;15183;51.350;11.102;2023-10-13T08:00:57;6.57;;;3.13;;
27804;SDS011;15183;51.350;11.102;2023-10-13T08:06:08;6.78;;;4.20;;
27804;SDS011;15183;51.350;11.102;2023-10-13T08:08:36;9.55;;;5.50;;
27804;SDS011;15183;51.350;11.102;2023-10-13T08:11:04;4.97;;;4.13;;
27804;SDS011;15183;51.350;11.102;2023-10-13T08:13:57;5.88;;;4.22;;
27804;SDS011;15183;51.350;11.102;2023-10-13T08:16:28;7.47;;;4.10;;
27804;SDS011;15183;51.350;11.102;2023-10-13T08:19:14;5.70;;;4.30;;
27804;SDS011;15183;51.350;11.102;2023-10-13T08:21:43;6.72;;;4.72;;
27804;SDS011;15183;51.350;11.102;2023-10-13T08:24:25;6.03;;;3.65;;
27804;SDS011;15183;51.350;11.102;2023-10-13T08:27:13;10.68;;;7.63;;
27804;SDS011;15183;51.350;11.102;2023-10-13T08:29:41;6.05;;;3.47;;
27804;SDS011;15183;51.350;11.102;2023-10-13T08:32:22;5.63;;;3.63;;
27804;SDS011;15183;51.350;11.102;2023-10-13T08:34:58;3.25;;;2.75;;
27804;SDS011;15183;51.350;11.102;2023-10-13T08:37:26;6.10;;;3.95;;
27804;SDS011;15183;51.350;11.102;2023-10-13T08:39:57;8.23;;;5.53;;
27804;SDS011;15183;51.350;11.102;2023-10-13T08:42:31;5.82;;;4.50;;
27804;SDS011;15183;51.350;11.102;2023-10-13T08:45:18;8.48;;;4.88;;
27804;SDS011;15183;51.350;11.102;2023-10-13T08:47:54;8.68;;;6.40;;
27804;SDS011;15183;51.350;11.102;2023-10-13T08:50:38;10.52;;;6.15;;
27804;SDS011;15183;51.350;11.102;2023-10-13T08:53:19;6.15;;;4.63;;
27804;SDS011;15183;51.350;11.102;2023-10-13T08:56:10;8.27;;;4.15;;
27804;SDS011;15183;51.350;11.102;2023-10-13T08:58:47;6.68;;;4.30;;
27804;SDS011;15183;51.350;11.102;2023-10-13T09:04:02;7.55;;;5.05;;
27804;SDS011;15183;51.350;11.102;2023-10-13T09:12:12;14.25;;;10.95;;
27804;SDS011;15183;51.350;11.102;2023-10-13T09:14:59;10.13;;;7.22;;
27804;SDS011;15183;51.350;11.102;2023-10-13T09:17:49;7.88;;;5.90;;
27804;SDS011;15183;51.350;11.102;2023-10-13T09:20:16;10.25;;;7.50;;
27804;SDS011;15183;51.350;11.102;2023-10-13T09:23:09;8.75;;;6.95;;
27804;SDS011;15183;51.350;11.102;2023-10-13T09:25:39;13.90;;;7.88;;
27804;SDS011;15183;51.350;11.102;2023-10-13T09:28:34;7.20;;;5.55;;
27804;SDS011;15183;51.350;11.102;2023-10-13T09:31:03;8.07;;;4.40;;
27804;SDS011;15183;51.350;11.102;2023-10-13T09:33:35;9.85;;;6.20;;
27804;SDS011;15183;51.350;11.102;2023-10-13T09:36:02;11.77;;;7.60;;
27804;SDS011;15183;51.350;11.102;2023-10-13T09:38:36;12.52;;;9.48;;
27804;SDS011;15183;51.350;11.102;2023-10-13T09:41:06;9.15;;;7.00;;
27804;SDS011;15183;51.350;11.102;2023-10-13T09:43:44;7.88;;;6.20;;
27804;SDS011;15183;51.350;11.102;2023-10-13T09:46:14;11.50;;;8.25;;
27804;SDS011;15183;51.350;11.102;2023-10-13T09:48:49;12.65;;;9.25;;
27804;SDS011;15183;51.350;11.102;2023-10-13T09:51:43;9.55;;;6.60;;
27804;SDS011;15183;51.350;11.102;2023-10-13T09:54:13;15.00;;;11.07;;
27804;SDS011;15183;51.350;11.102;2023-10-13T09:57:00;16.08;;;9.02;;
27804;SDS011;15183;51.350;11.102;2023-10-13T09:59:45;14.02;;;9.48;;
27804;SDS011;15183;51.350;11.102;2023-10-13T10:02:17;8.63;;;5.78;;
27804;SDS011;15183;51.350;11.102;2023-10-13T10:04:51;11.38;;;8.23;;
27804;SDS011;15183;51.350;11.102;2023-10-13T10:07:28;9.95;;;6.45;;
27804;SDS011;15183;51.350;11.102;2023-10-13T10:09:58;5.18;;;4.55;;
27804;SDS011;15183;51.350;11.102;2023-10-13T10:12:33;6.47;;;4.57;;
27804;SDS011;15183;51.350;11.102;2023-10-13T10:15:29;8.07;;;4.57;;
27804;SDS011;15183;51.350;11.102;2023-10-13T10:18:00;6.65;;;4.50;;
27804;SDS011;15183;51.350;11.102;2023-10-13T10:20:34;6.97;;;3.85;;
27804;SDS011;15183;51.350;11.102;2023-10-13T10:23:08;7.93;;;4.28;;
27804;SDS011;15183;51.350;11.102;2023-10-13T10:25:40;9.70;;;4.13;;
27804;SDS011;15183;51.350;11.102;2023-10-13T10:28:10;8.57;;;4.68;;
27804;SDS011;15183;51.350;11.102;2023-10-13T10:30:41;10.73;;;5.03;;
27804;SDS011;15183;51.350;11.102;2023-10-13T10:33:10;7.40;;;4.32;;
27804;SDS011;15183;51.350;11.102;2023-10-13T10:35:41;9.18;;;4.35;;
27804;SDS011;15183;51.350;11.102;2023-10-13T10:38:13;11.13;;;4.82;;
27804;SDS011;15183;51.350;11.102;2023-10-13T10:40:55;9.15;;;4.90;;
27804;SDS011;15183;51.350;11.102;2023-10-13T10:46:09;8.27;;;3.90;;
27804;SDS011;15183;51.350;11.102;2023-10-13T10:48:39;6.70;;;4.20;;
27804;SDS011;15183;51.350;11.102;2023-10-13T10:51:12;11.15;;;5.03;;
27804;SDS011;15183;51.350;11.102;2023-10-13T10:53:41;6.55;;;3.55;;
27804;SDS011;15183;51.350;11.102;2023-10-13T10:56:11;12.23;;;4.53;;
27804;SDS011;15183;51.350;11.102;2023-10-13T10:59:08;6.53;;;4.28;;
27804;SDS011;15183;51.350;11.102;2023-10-13T11:01:44;14.90;;;5.72;;
27804;SDS011;15183;51.350;11.102;2023-10-13T11:04:18;10.45;;;4.80;;
27804;SDS011;15183;51.350;11.102;2023-10-13T11:06:49;7.85;;;3.83;;
27804;SDS011;15183;51.350;11.102;2023-10-13T11:09:24;7.25;;;3.85;;
27804;SDS011;15183;51.350;11.102;2023-10-13T11:14:39;8.10;;;3.72;;
27804;SDS011;15183;51.350;11.102;2023-10-13T11:17:07;7.72;;;3.95;;
27804;SDS011;15183;51.350;11.102;2023-10-13T11:19:44;9.65;;;3.88;;
27804;SDS011;15183;51.350;11.102;2023-10-13T11:22:14;11.30;;;3.90;;
27804;SDS011;15183;51.350;11.102;2023-10-13T11:24:58;7.70;;;3.38;;
27804;SDS011;15183;51.350;11.102;2023-10-13T11:27:37;9.48;;;3.58;;
27804;SDS011;15183;51.350;11.102;2023-10-13T11:30:11;8.10;;;3.83;;
27804;SDS011;15183;51.350;11.102;2023-10-13T11:32:43;10.32;;;5.18;;
27804;SDS011;15183;51.350;11.102;2023-10-13T11:35:09;8.63;;;4.05;;
27804;SDS011;15183;51.350;11.102;2023-10-13T11:37:49;10.05;;;4.70;;
27804;SDS011;15183;51.350;11.102;2023-10-13T11:40:34;11.85;;;4.80;;
27804;SDS011;15183;51.350;11.102;2023-10-13T11:43:10;14.60;;;5.93;;
27804;SDS011;15183;51.350;11.102;2023-10-13T11:45:40;9.40;;;5.03;;
27804;SDS011;15183;51.350;11.102;2023-10-13T11:48:32;10.15;;;4.63;;
27804;SDS011;15183;51.350;11.102;2023-10-13T11:51:02;17.30;;;6.40;;
27804;SDS011;15183;51.350;11.102;2023-10-13T11:53:36;8.50;;;5.25;;
27804;SDS011;15183;51.350;11.102;2023-10-13T11:56:04;18.83;;;6.60;;
27804;SDS011;15183;51.350;11.102;2023-10-13T11:58:37;10.50;;;6.65;;
27804;SDS011;15183;51.350;11.102;2023-10-13T12:01:05;10.40;;;5.78;;
27804;SDS011;15183;51.350;11.102;2023-10-13T12:06:26;11.07;;;5.03;;
27804;SDS011;15183;51.350;11.102;2023-10-13T12:09:07;9.18;;;4.15;;
27804;SDS011;15183;51.350;11.102;2023-10-13T12:11:44;9.00;;;3.75;;
27804;SDS011;15183;51.350;11.102;2023-10-13T12:14:20;10.35;;;4.10;;
27804;SDS011;15183;51.350;11.102;2023-10-13T12:16:57;10.02;;;3.47;;
27804;SDS011;15183;51.350;11.102;2023-10-13T12:19:30;8.25;;;4.25;;
27804;SDS011;15183;51.350;11.102;2023-10-13T12:21:57;7.85;;;5.25;;
27804;SDS011;15183;51.350;11.102;2023-10-13T12:24:30;12.43;;;5.50;;
27804;SDS011;15183;51.350;11.102;2023-10-13T12:27:03;13.80;;;4.50;;
27804;SDS011;15183;51.350;11.102;2023-10-13T12:29:45;6.95;;;4.30;;
27804;SDS011;15183;51.350;11.102;2023-10-13T12:32:22;12.80;;;5.00;;
27804;SDS011;15183;51.350;11.102;2023-10-13T12:34:56;15.57;;;4.50;;
27804;SDS011;15183;51.350;11.102;2023-10-13T12:37:24;12.95;;;4.03;;
27804;SDS011;15183;51.350;11.102;2023-10-13T12:40:02;8.02;;;4.20;;
27804;SDS011;15183;51.350;11.102;2023-10-13T12:42:52;11.20;;;4.72;;
27804;SDS011;15183;51.350;11.102;2023-10-13T12:45:40;8.63;;;4.32;;
27804;SDS011;15183;51.350;11.102;2023-10-13T12:48:26;7.75;;;4.35;;
27804;SDS011;15183;51.350;11.102;2023-10-13T12:51:13;12.73;;;4.78;;
27804;SDS011;15183;51.350;11.102;2023-10-13T12:53:49;8.93;;;4.07;;
27804;SDS011;15183;51.350;11.102;2023-10-13T12:56:19;8.55;;;3.78;;
27804;SDS011;15183;51.350;11.102;2023-10-13T12:58:51;6.57;;;3.65;;
27804;SDS011;15183;51.350;11.102;2023-10-13T13:01:18;8.43;;;4.35;;
27804;SDS011;15183;51.350;11.102;2023-10-13T13:03:46;8.70;;;4.78;;
27804;SDS011;15183;51.350;11.102;2023-10-13T13:06:20;8.65;;;4.15;;
27804;SDS011;15183;51.350;11.102;2023-10-13T13:08:55;8.80;;;4.35;;
27804;SDS011;15183;51.350;11.102;2023-10-13T13:11:25;6.97;;;4.07;;
27804;SDS011;15183;51.350;11.102;2023-10-13T13:13:54;8.35;;;4.65;;
27804;SDS011;15183;51.350;11.102;2023-10-13T13:16:21;10.77;;;5.03;;
27804;SDS011;15183;51.350;11.102;2023-10-13T13:18:50;9.95;;;4.88;;
27804;SDS011;15183;51.350;11.102;2023-10-13T13:21:17;8.25;;;4.57;;
27804;SDS011;15183;51.350;11.102;2023-10-13T13:23:49;10.82;;;5.10;;
27804;SDS011;15183;51.350;11.102;2023-10-13T13:26:16;9.32;;;4.63;;
27804;SDS011;15183;51.350;11.102;2023-10-13T13:28:44;5.28;;;3.67;;
27804;SDS011;15183;51.350;11.102;2023-10-13T13:31:12;10.50;;;4.75;;
27804;SDS011;15183;51.350;11.102;2023-10-13T13:33:40;8.57;;;4.60;;
27804;SDS011;15183;51.350;11.102;2023-10-13T13:36:10;7.97;;;4.93;;
27804;SDS011;15183;51.350;11.102;2023-10-13T13:38:41;7.63;;;4.53;;
27804;SDS011;15183;51.350;11.102;2023-10-13T13:41:14;7.80;;;4.30;;
27804;SDS011;15183;51.350;11.102;2023-10-13T13:46:24;7.28;;;4.43;;
27804;SDS011;15183;51.350;11.102;2023-10-13T13:48:53;6.82;;;4.35;;
27804;SDS011;15183;51.350;11.102;2023-10-13T13:51:44;5.78;;;4.07;;
27804;SDS011;15183;51.350;11.102;2023-10-13T13:54:18;11.02;;;5.40;;
27804;SDS011;15183;51.350;11.102;2023-10-13T13:56:46;9.48;;;5.20;;
27804;SDS011;15183;51.350;11.102;2023-10-13T13:59:13;9.48;;;5.05;;
27804;SDS011;15183;51.350;11.102;2023-10-13T14:01:45;6.05;;;3.83;;
27804;SDS011;15183;51.350;11.102;2023-10-13T14:04:12;6.13;;;4.20;;
27804;SDS011;15183;51.350;11.102;2023-10-13T14:06:43;7.78;;;4.15;;
27804;SDS011;15183;51.350;11.102;2023-10-13T14:09:10;10.77;;;4.20;;
27804;SDS011;15183;51.350;11.102;2023-10-13T14:11:42;8.30;;;3.70;;
27804;SDS011;15183;51.350;11.102;2023-10-13T14:14:27;10.73;;;4.35;;
27804;SDS011;15183;51.350;11.102;2023-10-13T14:16:54;8.38;;;4.63;;
27804;SDS011;15183;51.350;11.102;2023-10-13T14:19:29;7.45;;;4.32;;
27804;SDS011;15183;51.350;11.102;2023-10-13T14:21:55;7.25;;;4.30;;
27804;SDS011;15183;51.350;11.102;2023-10-13T14:24:23;8.48;;;4.18;;
27804;SDS011;15183;51.350;11.102;2023-10-13T14:26:59;8.32;;;4.55;;
27804;SDS011;15183;51.350;11.102;2023-10-13T14:29:39;8.02;;;4.57;;
27804;SDS011;15183;51.350;11.102;2023-10-13T14:32:06;6.60;;;4.63;;
27804;SDS011;15183;51.350;11.102;2023-10-13T14:34:39;6.63;;;4.43;;
27804;SDS011;15183;51.350;11.102;2023-10-13T14:37:07;14.77;;;4.65;;
27804;SDS011;15183;51.350;11.102;2023-10-13T14:39:41;6.60;;;4.03;;
27804;SDS011;15183;51.350;11.102;2023-10-13T14:42:08;6.57;;;3.90;;
27804;SDS011;15183;51.350;11.102;2023-10-13T14:44:34;8.65;;;4.03;;
27804;SDS011;15183;51.350;11.102;2023-10-13T14:47:02;10.40;;;4.10;;
27804;SDS011;15183;51.350;11.102;2023-10-13T14:49:31;19.55;;;5.47;;
27804;SDS011;15183;51.350;11.102;2023-10-13T14:51:57;7.68;;;4.63;;
27804;SDS011;15183;51.350;11.102;2023-10-13T14:54:25;7.05;;;4.28;;
27804;SDS011;15183;51.350;11.102;2023-10-13T14:57:01;10.23;;;4.40;;
27804;SDS011;15183;51.350;11.102;2023-10-13T14:59:29;7.18;;;4.18;;
27804;SDS011;15183;51.350;11.102;2023-10-13T15:02:01;6.10;;;3.65;;
27804;SDS011;15183;51.350;11.102;2023-10-13T15:04:28;7.45;;;4.00;;
27804;SDS011;15183;51.350;11.102;2023-10-13T15:07:00;9.23;;;4.80;;
27804;SDS011;15183;51.350;11.102;2023-10-13T15:09:28;12.13;;;4.00;;
27804;SDS011;15183;51.350;11.102;2023-10-13T15:11:55;9.32;;;4.85;;
27804;SDS011;15183;51.350;11.102;2023-10-13T15:14:22;5.70;;;4.13;;
27804;SDS011;15183;51.350;11.102;2023-10-13T15:16:50;8.60;;;4.18;;
27804;SDS011;15183;51.350;11.102;2023-10-13T15:19:19;8.63;;;3.63;;
27804;SDS011;15183;51.350;11.102;2023-10-13T15:21:45;8.75;;;4.22;;
27804;SDS011;15183;51.350;11.102;2023-10-13T15:24:16;8.60;;;3.88;;
27804;SDS011;15183;51.350;11.102;2023-10-13T15:26:43;7.78;;;4.05;;
27804;SDS011;15183;51.350;11.102;2023-10-13T15:29:18;9.32;;;3.97;;
27804;SDS011;15183;51.350;11.102;2023-10-13T15:31:51;8.05;;;3.90;;
27804;SDS011;15183;51.350;11.102;2023-10-13T15:34:24;7.60;;;3.70;;
27804;SDS011;15183;51.350;11.102;2023-10-13T15:36:52;8.90;;;4.20;;
27804;SDS011;15183;51.350;11.102;2023-10-13T15:39:24;7.90;;;3.92;;
27804;SDS011;15183;51.350;11.102;2023-10-13T15:41:55;7.05;;;3.78;;